createdAt,value
2019-01-12T00:00:49.609Z,99.99
2019-01-12T00:01:49.620Z,99.99
2019-01-12T00:02:49.685Z,99.99
2019-01-12T00:03:49.717Z,99.99
2019-01-12T00:04:49.770Z,99.99
2019-01-12T00:05:49.822Z,99.99
2019-01-12T00:06:49.872Z,99.99
2019-01-12T00:07:49.912Z,99.99
2019-01-12T00:08:49.958Z,99.99
2019-01-12T00:09:49.981Z,99.99
2019-01-12T00:10:50.045Z,99.99
2019-01-12T00:11:50.099Z,99.99
2019-01-12T00:12:50.150Z,99.99
2019-01-12T00:13:50.192Z,99.99
2019-01-12T00:14:50.220Z,99.99
2019-01-12T00:15:50.286Z,99.99
2019-01-12T00:16:50.343Z,99.99
2019-01-12T00:17:50.394Z,99.99
2019-01-12T00:18:50.410Z,99.99
2019-01-12T00:19:50.492Z,99.99
2019-01-12T00:20:50.529Z,99.99
2019-01-12T00:21:50.609Z,99.99
2019-01-12T00:22:50.630Z,99.99
2019-01-12T00:23:50.704Z,99.99
2019-01-12T00:24:50.710Z,99.99
2019-01-12T00:25:50.776Z,99.99
2019-01-12T00:26:50.818Z,99.99
2019-01-12T00:27:50.865Z,99.99
2019-01-12T00:28:50.906Z,99.99
2019-01-12T00:29:51.139Z,99.99
2019-01-12T00:30:51.115Z,99.99
2019-01-12T00:31:51.047Z,99.99
2019-01-12T00:32:51.087Z,99.99
2019-01-12T00:33:51.145Z,99.99
2019-01-12T00:34:51.202Z,99.99
2019-01-12T00:35:51.228Z,99.99
2019-01-12T00:36:51.300Z,99.99
2019-01-12T00:37:51.336Z,99.99
2019-01-12T00:38:51.392Z,99.99
2019-01-12T00:39:51.530Z,99.99
2019-01-12T00:40:51.470Z,99.99
2019-01-12T00:41:51.530Z,99.99
2019-01-12T00:42:51.578Z,99.99
2019-01-12T00:43:51.628Z,99.99
2019-01-12T00:44:51.650Z,99.99
2019-01-12T00:45:51.716Z,99.99
2019-01-12T00:46:51.752Z,99.99
2019-01-12T00:47:51.793Z,99.99
2019-01-12T00:48:51.873Z,99.99
2019-01-12T00:49:51.910Z,99.99
2019-01-12T00:50:51.954Z,99.99
2019-01-12T00:51:51.996Z,99.99
2019-01-12T00:52:52.069Z,99.99
2019-01-12T00:53:52.105Z,99.99
2019-01-12T00:54:52.126Z,99.99
2019-01-12T00:55:52.263Z,99.99
2019-01-12T00:56:52.236Z,99.99
2019-01-12T00:57:52.323Z,99.99
2019-01-12T00:58:52.335Z,99.99
2019-01-12T00:59:52.363Z,99.99
2019-01-12T01:00:52.447Z,99.99
2019-01-12T01:01:52.485Z,99.99
2019-01-12T01:02:52.547Z,99.99
2019-01-12T01:03:52.578Z,99.99
2019-01-12T01:04:52.639Z,99.99
2019-01-12T01:05:52.678Z,99.99
2019-01-12T01:06:52.725Z,99.99
2019-01-12T01:07:52.759Z,99.99
2019-01-12T01:08:52.871Z,99.99
2019-01-12T01:09:52.881Z,99.99
2019-01-12T01:10:52.915Z,99.99
2019-01-12T01:11:52.944Z,99.99
2019-01-12T01:12:52.992Z,99.99
2019-01-12T01:13:53.039Z,99.99
2019-01-12T01:14:53.091Z,99.99
2019-01-12T01:15:53.155Z,99.99
2019-01-12T01:16:53.206Z,99.99
2019-01-12T01:17:53.252Z,99.99
2019-01-12T01:18:53.299Z,99.99
2019-01-12T01:19:53.344Z,99.99
2019-01-12T01:20:53.394Z,99.99
2019-01-12T01:21:53.488Z,99.99
2019-01-12T01:22:53.485Z,99.99
2019-01-12T01:23:53.530Z,99.99
2019-01-12T01:24:53.581Z,99.99
2019-01-12T01:25:53.642Z,99.99
2019-01-12T01:26:53.692Z,99.99
2019-01-12T01:27:53.785Z,99.99
2019-01-12T01:28:53.777Z,99.99
2019-01-12T01:29:53.826Z,99.99
2019-01-12T01:30:53.848Z,99.99
2019-01-12T01:31:53.974Z,99.99
2019-01-12T01:32:53.967Z,99.99
2019-01-12T01:33:54.002Z,99.99
2019-01-12T01:34:54.056Z,99.99
2019-01-12T01:35:54.107Z,99.99
2019-01-12T01:36:54.142Z,99.99
2019-01-12T01:37:54.245Z,99.99
2019-01-12T01:38:54.255Z,99.99
2019-01-12T01:39:54.292Z,99.99
2019-01-12T01:40:54.343Z,99.99
2019-01-12T01:41:54.407Z,99.99
2019-01-12T01:42:54.414Z,99.99
2019-01-12T01:43:54.527Z,99.99
2019-01-12T01:44:54.525Z,99.99
2019-01-12T01:45:54.585Z,99.99
2019-01-12T01:46:54.658Z,99.99
2019-01-12T01:47:54.678Z,99.99
2019-01-12T01:48:54.718Z,99.99
2019-01-12T01:49:54.805Z,99.99
2019-01-12T01:50:54.824Z,99.99
2019-01-12T01:51:54.844Z,99.99
2019-01-12T01:52:54.921Z,99.99
2019-01-12T01:53:54.962Z,99.99
2019-01-12T01:54:55.034Z,99.99
2019-01-12T01:55:55.061Z,99.99
2019-01-12T01:56:55.118Z,99.99
2019-01-12T01:57:55.157Z,99.99
2019-01-12T01:58:55.190Z,99.99
2019-01-12T01:59:55.254Z,99.99
2019-01-12T02:00:55.308Z,99.99
2019-01-12T02:01:55.340Z,99.99
2019-01-12T02:02:55.428Z,99.99
2019-01-12T02:03:55.470Z,99.99
2019-01-12T02:04:55.491Z,99.99
2019-01-12T02:05:55.529Z,99.99
2019-01-12T02:06:55.593Z,99.99
2019-01-12T02:07:55.628Z,99.99
2019-01-12T02:08:55.682Z,99.99
2019-01-12T02:09:55.721Z,99.99
2019-01-12T02:10:55.785Z,99.99
2019-01-12T02:11:55.811Z,99.99
2019-01-12T02:12:55.865Z,99.99
2019-01-12T02:13:55.921Z,99.99
2019-01-12T02:14:55.965Z,99.99
2019-01-12T02:15:56.008Z,99.99
2019-01-12T02:16:56.054Z,99.99
2019-01-12T02:17:56.110Z,99.99
2019-01-12T02:18:56.163Z,99.99
2019-01-12T02:19:56.205Z,99.99
2019-01-12T02:20:56.289Z,99.99
2019-01-12T02:21:56.339Z,99.99
2019-01-12T02:22:56.389Z,99.99
2019-01-12T02:23:56.409Z,99.99
2019-01-12T02:25:00.113Z,99.99
2019-01-12T02:25:56.490Z,99.99
2019-01-12T02:26:56.540Z,99.99
2019-01-12T02:27:56.601Z,99.99
2019-01-12T02:28:56.611Z,99.99
2019-01-12T02:29:56.667Z,99.99
2019-01-12T02:30:56.742Z,99.99
2019-01-12T02:31:56.785Z,99.99
2019-01-12T02:32:56.839Z,99.99
2019-01-12T02:33:56.916Z,99.99
2019-01-12T02:34:56.924Z,99.99
2019-01-12T02:35:57.012Z,99.99
2019-01-12T02:36:57.021Z,99.99
2019-01-12T02:37:57.053Z,99.99
2019-01-12T02:38:57.131Z,99.99
2019-01-12T02:39:57.176Z,99.99
2019-01-12T02:40:57.206Z,99.99
2019-01-12T02:41:57.261Z,99.99
2019-01-12T02:42:57.305Z,99.99
2019-01-12T02:43:57.329Z,99.99
2019-01-12T02:44:57.448Z,99.99
2019-01-12T02:45:57.452Z,99.99
2019-01-12T02:46:57.491Z,99.99
2019-01-12T02:47:57.536Z,99.99
2019-01-12T02:48:57.598Z,99.99
2019-01-12T02:49:57.664Z,99.99
2019-01-12T02:50:57.680Z,99.99
2019-01-12T02:51:57.748Z,99.99
2019-01-12T02:52:57.765Z,99.99
2019-01-12T02:53:57.829Z,99.99
2019-01-12T02:54:57.930Z,99.99
2019-01-12T02:55:57.988Z,99.99
2019-01-12T02:56:57.962Z,99.99
2019-01-12T02:57:58.031Z,99.99
2019-01-12T02:58:58.071Z,99.99
2019-01-12T02:59:58.126Z,99.99
2019-01-12T03:00:58.156Z,99.99
2019-01-12T03:01:58.213Z,99.99
2019-01-12T03:02:58.243Z,99.99
2019-01-12T03:03:58.318Z,99.99
2019-01-12T03:04:58.392Z,99.99
2019-01-12T03:05:58.401Z,99.99
2019-01-12T03:06:58.488Z,99.99
2019-01-12T03:07:58.501Z,99.99
2019-01-12T03:08:58.561Z,99.99
2019-01-12T03:09:58.603Z,99.99
2019-01-12T03:10:58.625Z,99.99
2019-01-12T03:11:58.708Z,99.99
2019-01-12T03:12:58.742Z,99.99
2019-01-12T03:13:58.834Z,99.99
2019-01-12T03:14:58.838Z,99.99
2019-01-12T03:15:58.870Z,99.99
2019-01-12T03:16:58.914Z,99.99
2019-01-12T03:17:58.984Z,99.99
2019-01-12T03:18:58.998Z,99.99
2019-01-12T03:19:59.074Z,99.99
2019-01-12T03:20:59.173Z,99.99
2019-01-12T03:21:59.168Z,99.99
2019-01-12T03:22:59.206Z,99.99
2019-01-12T03:23:59.252Z,99.99
2019-01-12T03:24:59.304Z,99.99
2019-01-12T03:25:59.429Z,99.99
2019-01-12T03:26:59.558Z,99.99
2019-01-12T03:27:59.446Z,99.99
2019-01-12T03:28:59.506Z,99.99
2019-01-12T03:29:59.557Z,99.99
2019-01-12T03:30:59.602Z,99.99
2019-01-12T03:31:59.646Z,99.99
2019-01-12T03:32:59.702Z,99.99
2019-01-12T03:33:59.723Z,99.99
2019-01-12T03:34:59.774Z,99.99
2019-01-12T03:35:59.864Z,99.99
2019-01-12T03:36:59.870Z,99.99
2019-01-12T03:37:59.932Z,99.99
2019-01-12T03:38:59.974Z,99.99
2019-01-12T03:40:00.038Z,99.99
2019-01-12T03:41:00.070Z,99.99
2019-01-12T03:42:00.126Z,99.99
2019-01-12T03:43:00.164Z,99.99
2019-01-12T03:44:00.202Z,99.99
2019-01-12T03:45:00.288Z,99.99
2019-01-12T03:46:00.294Z,99.99
2019-01-12T03:47:00.403Z,99.99
2019-01-12T03:48:00.433Z,99.99
2019-01-12T03:49:00.437Z,99.99
2019-01-12T03:50:00.539Z,99.99
2019-01-12T03:51:00.539Z,99.99
2019-01-12T03:52:00.588Z,99.99
2019-01-12T03:53:00.630Z,99.99
2019-01-12T03:54:00.672Z,99.99
2019-01-12T03:55:00.733Z,99.99
2019-01-12T03:56:00.793Z,99.99
2019-01-12T03:57:00.805Z,99.99
2019-01-12T03:58:00.869Z,99.99
2019-01-12T03:59:00.934Z,99.99
2019-01-12T04:00:00.982Z,99.99
2019-01-12T04:01:01.014Z,99.99
2019-01-12T04:02:01.075Z,99.99
2019-01-12T04:03:01.130Z,99.99
2019-01-12T04:04:01.154Z,99.99
2019-01-12T04:05:01.203Z,99.99
2019-01-12T04:06:01.260Z,99.99
2019-01-12T04:07:01.303Z,99.99
2019-01-12T04:08:01.359Z,99.99
2019-01-12T04:09:01.394Z,99.99
2019-01-12T04:10:01.470Z,99.99
2019-01-12T04:11:01.483Z,99.99
2019-01-12T04:12:01.536Z,99.99
2019-01-12T04:13:01.569Z,99.99
2019-01-12T04:14:01.630Z,99.99
2019-01-12T04:15:01.661Z,99.99
2019-01-12T04:16:01.737Z,99.99
2019-01-12T04:17:01.923Z,99.99
2019-01-12T04:18:01.807Z,99.99
2019-01-12T04:19:01.859Z,99.99
2019-01-12T04:20:01.918Z,99.99
2019-01-12T04:21:01.982Z,99.99
2019-01-12T04:22:02.009Z,99.99
2019-01-12T04:23:02.047Z,99.99
2019-01-12T04:24:02.105Z,99.99
2019-01-12T04:25:02.157Z,99.99
2019-01-12T04:26:02.200Z,99.99
2019-01-12T04:27:02.241Z,99.99
2019-01-12T04:28:02.383Z,99.99
2019-01-12T04:29:02.336Z,99.99
2019-01-12T04:30:02.381Z,99.99
2019-01-12T04:31:02.419Z,99.99
2019-01-12T04:32:02.487Z,99.99
2019-01-12T04:33:02.509Z,99.99
2019-01-12T04:34:02.566Z,99.99
2019-01-12T04:35:02.614Z,99.99
2019-01-12T04:36:02.662Z,99.99
2019-01-12T04:37:02.707Z,99.99
2019-01-12T04:38:02.750Z,99.99
2019-01-12T04:39:02.805Z,99.99
2019-01-12T04:40:02.864Z,99.99
2019-01-12T04:41:02.944Z,99.99
2019-01-12T04:42:02.936Z,99.99
2019-01-12T04:43:03.002Z,99.99
2019-01-12T04:44:03.077Z,99.99
2019-01-12T04:45:03.077Z,99.99
2019-01-12T04:46:03.119Z,99.99
2019-01-12T04:47:03.222Z,99.99
2019-01-12T04:48:03.242Z,99.99
2019-01-12T04:49:03.299Z,99.99
2019-01-12T04:50:03.329Z,99.99
2019-01-12T04:51:03.385Z,99.99
2019-01-12T04:52:03.436Z,99.99
2019-01-12T04:53:03.477Z,99.99
2019-01-12T04:54:03.543Z,99.99
2019-01-12T04:55:03.545Z,99.99
2019-01-12T04:56:03.613Z,99.99
2019-01-12T04:57:03.652Z,99.99
2019-01-12T04:58:03.705Z,99.99
2019-01-12T04:59:03.731Z,99.99
2019-01-12T05:00:03.841Z,99.99
2019-01-12T05:01:03.840Z,99.99
2019-01-12T05:02:03.899Z,99.99
2019-01-12T05:03:03.951Z,99.99
2019-01-12T05:04:03.995Z,99.99
2019-01-12T05:05:04.056Z,99.99
2019-01-12T05:06:04.071Z,99.99
2019-01-12T05:07:04.123Z,99.99
2019-01-12T05:08:04.175Z,99.99
2019-01-12T05:09:04.229Z,99.99
2019-01-12T05:10:04.293Z,99.99
2019-01-12T05:11:04.461Z,99.99
2019-01-12T05:12:04.363Z,99.99
2019-01-12T05:13:04.470Z,99.99
2019-01-12T05:14:04.455Z,99.99
2019-01-12T05:15:04.547Z,99.99
2019-01-12T05:16:04.595Z,99.99
2019-01-12T05:17:04.624Z,99.99
2019-01-12T05:18:04.661Z,99.99
2019-01-12T05:19:04.691Z,99.99
2019-01-12T05:20:04.754Z,99.99
2019-01-12T05:21:04.775Z,99.99
2019-01-12T05:22:04.866Z,99.99
2019-01-12T05:23:04.892Z,99.99
2019-01-12T05:24:04.952Z,99.99
2019-01-12T05:25:04.998Z,99.99
2019-01-12T05:26:05.070Z,99.99
2019-01-12T05:27:05.117Z,99.99
2019-01-12T05:28:05.128Z,99.99
2019-01-12T05:29:05.217Z,99.99
2019-01-12T05:30:05.206Z,99.99
2019-01-12T05:31:05.270Z,99.99
2019-01-12T05:32:05.314Z,99.99
2019-01-12T05:33:05.377Z,99.99
2019-01-12T05:34:05.417Z,99.99
2019-01-12T05:35:05.441Z,99.99
2019-01-12T05:36:05.504Z,99.99
2019-01-12T05:37:05.558Z,99.99
2019-01-12T05:38:05.592Z,99.99
2019-01-12T05:39:05.662Z,99.99
2019-01-12T05:40:05.689Z,99.99
2019-01-12T05:41:05.751Z,99.99
2019-01-12T05:42:05.809Z,99.99
2019-01-12T05:43:05.820Z,99.99
2019-01-12T05:44:05.889Z,99.99
2019-01-12T05:45:05.931Z,99.99
2019-01-12T05:46:05.984Z,99.99
2019-01-12T05:47:06.185Z,99.99
2019-01-12T05:48:06.077Z,99.99
2019-01-12T05:49:06.104Z,99.99
2019-01-12T05:50:06.197Z,99.99
2019-01-12T05:51:06.204Z,99.99
2019-01-12T05:52:06.286Z,99.99
2019-01-12T05:53:06.277Z,99.99
2019-01-12T05:54:06.349Z,99.99
2019-01-12T05:55:06.409Z,99.99
2019-01-12T05:56:06.443Z,99.99
2019-01-12T05:57:06.486Z,99.99
2019-01-12T05:58:06.687Z,99.99
2019-01-12T05:59:06.576Z,99.99
2019-01-12T06:00:06.618Z,99.99
2019-01-12T06:01:06.664Z,99.99
2019-01-12T06:02:06.716Z,99.99
2019-01-12T06:03:06.773Z,99.99
2019-01-12T06:04:06.838Z,99.99
2019-01-12T06:05:06.879Z,99.99
2019-01-12T06:06:06.923Z,99.99
2019-01-12T06:07:06.979Z,99.99
2019-01-12T06:08:07.007Z,99.99
2019-01-12T06:09:07.081Z,99.99
2019-01-12T06:10:07.106Z,99.99
2019-01-12T06:11:07.164Z,99.99
2019-01-12T06:12:07.206Z,99.99
2019-01-12T06:13:07.237Z,99.99
2019-01-12T06:14:07.296Z,99.99
2019-01-12T06:15:07.357Z,99.99
2019-01-12T06:16:07.387Z,99.99
2019-01-12T06:17:07.419Z,99.99
2019-01-12T06:18:07.482Z,99.99
2019-01-12T06:19:07.512Z,99.99
2019-01-12T06:20:07.577Z,99.99
2019-01-12T06:21:07.624Z,99.99
2019-01-12T06:22:07.665Z,99.99
2019-01-12T06:23:07.715Z,99.99
2019-01-12T06:24:07.763Z,99.99
2019-01-12T06:25:07.800Z,99.99
2019-01-12T06:26:07.899Z,99.99
2019-01-12T06:27:07.879Z,99.99
2019-01-12T06:28:07.966Z,99.99
2019-01-12T06:29:08.136Z,99.99
2019-01-12T06:30:08.033Z,99.99
2019-01-12T06:31:08.081Z,99.99
2019-01-12T06:32:08.138Z,99.99
2019-01-12T06:33:08.227Z,99.99
2019-01-12T06:34:08.205Z,99.99
2019-01-12T06:35:08.277Z,99.99
2019-01-12T06:36:08.318Z,99.99
2019-01-12T06:37:08.371Z,99.99
2019-01-12T06:38:08.423Z,99.99
2019-01-12T06:39:08.480Z,99.99
2019-01-12T06:40:08.509Z,99.99
2019-01-12T06:41:08.547Z,99.99
2019-01-12T06:42:08.640Z,99.99
2019-01-12T06:43:08.665Z,99.99
2019-01-12T06:44:08.690Z,99.99
2019-01-12T06:45:08.750Z,99.99
2019-01-12T06:46:08.776Z,99.99
2019-01-12T06:47:08.989Z,99.99
2019-01-12T06:48:08.904Z,99.99
2019-01-12T06:49:08.939Z,99.99
2019-01-12T06:50:08.990Z,99.99
2019-01-12T06:51:09.031Z,99.99
2019-01-12T06:52:09.079Z,99.99
2019-01-12T06:53:09.131Z,99.99
2019-01-12T06:54:09.191Z,99.99
2019-01-12T06:55:09.232Z,99.99
2019-01-12T06:56:10.910Z,99.99
2019-01-12T06:57:09.321Z,99.99
2019-01-12T06:58:09.377Z,99.99
2019-01-12T06:59:09.406Z,99.99
2019-01-12T07:00:09.492Z,99.99
2019-01-12T07:01:09.545Z,99.99
2019-01-12T07:02:09.539Z,99.99
2019-01-12T07:03:09.608Z,99.99
2019-01-12T07:04:09.657Z,99.99
2019-01-12T07:05:09.708Z,99.99
2019-01-12T07:06:09.752Z,99.99
2019-01-12T07:07:09.789Z,99.99
2019-01-12T07:08:10.001Z,99.99
2019-01-12T07:09:09.880Z,99.99
2019-01-12T07:10:09.925Z,99.99
2019-01-12T07:11:10.034Z,99.99
2019-01-12T07:12:10.045Z,99.99
2019-01-12T07:13:10.071Z,99.99
2019-01-12T07:14:10.125Z,99.99
2019-01-12T07:15:10.170Z,99.99
2019-01-12T07:16:10.219Z,99.99
2019-01-12T07:17:10.259Z,99.99
2019-01-12T07:18:10.313Z,99.99
2019-01-12T07:19:10.360Z,99.99
2019-01-12T07:20:10.397Z,99.99
2019-01-12T07:21:10.497Z,99.99
2019-01-12T07:22:10.491Z,99.99
2019-01-12T07:23:10.537Z,99.99
2019-01-12T07:24:10.618Z,99.99
2019-01-12T07:25:10.789Z,99.99
2019-01-12T07:26:10.688Z,99.99
2019-01-12T07:27:10.748Z,99.99
2019-01-12T07:28:10.800Z,99.99
2019-01-12T07:29:10.834Z,99.99
2019-01-12T07:30:10.892Z,99.99
2019-01-12T07:31:10.925Z,99.99
2019-01-12T07:32:10.969Z,99.99
2019-01-12T07:33:11.022Z,99.99
2019-01-12T07:34:11.086Z,99.99
2019-01-12T07:35:11.089Z,99.99
2019-01-12T07:36:11.184Z,99.99
2019-01-12T07:37:11.210Z,99.99
2019-01-12T07:38:11.270Z,99.99
2019-01-12T07:39:11.307Z,99.99
2019-01-12T07:40:11.359Z,99.99
2019-01-12T07:41:11.403Z,99.99
2019-01-12T07:42:11.439Z,99.99
2019-01-12T07:43:11.492Z,99.99
2019-01-12T07:44:11.553Z,99.99
2019-01-12T07:45:11.606Z,99.99
2019-01-12T07:46:11.666Z,99.99
2019-01-12T07:47:11.663Z,99.99
2019-01-12T07:48:11.731Z,99.99
2019-01-12T07:49:11.760Z,99.99
2019-01-12T07:50:11.820Z,99.99
2019-01-12T07:51:11.891Z,99.99
2019-01-12T07:52:11.920Z,99.99
2019-01-12T07:53:11.953Z,99.99
2019-01-12T07:54:12.019Z,99.99
2019-01-12T07:55:12.067Z,99.99
2019-01-12T07:56:12.122Z,99.99
2019-01-12T07:57:12.141Z,99.99
2019-01-12T07:58:12.305Z,99.99
2019-01-12T07:59:12.255Z,99.99
2019-01-12T08:00:12.305Z,99.99
2019-01-12T08:01:12.359Z,99.99
2019-01-12T08:02:12.390Z,99.99
2019-01-12T08:03:12.434Z,99.99
2019-01-12T08:04:12.494Z,99.99
2019-01-12T08:05:12.539Z,99.99
2019-01-12T08:06:12.625Z,99.99
2019-01-12T08:07:12.622Z,99.99
2019-01-12T08:08:12.688Z,99.99
2019-01-12T08:09:12.743Z,99.99
2019-01-12T08:10:12.819Z,99.99
2019-01-12T08:11:12.811Z,99.99
2019-01-12T08:12:12.911Z,99.99
2019-01-12T08:13:12.955Z,99.99
2019-01-12T08:14:12.991Z,99.99
2019-01-12T08:15:13.023Z,99.99
2019-01-12T08:16:13.082Z,99.99
2019-01-12T08:17:13.115Z,99.99
2019-01-12T08:18:13.163Z,99.99
2019-01-12T08:19:13.207Z,99.99
2019-01-12T08:20:13.249Z,99.99
2019-01-12T08:21:13.304Z,99.99
2019-01-12T08:22:13.341Z,99.99
2019-01-12T08:23:13.401Z,99.99
2019-01-12T08:24:13.450Z,99.99
2019-01-12T08:25:13.495Z,99.99
2019-01-12T08:26:13.553Z,99.99
2019-01-12T08:27:13.575Z,99.99
2019-01-12T08:28:13.622Z,99.99
2019-01-12T08:29:13.693Z,99.99
2019-01-12T08:30:13.758Z,99.99
2019-01-12T08:31:13.782Z,99.99
2019-01-12T08:32:13.808Z,99.99
2019-01-12T08:33:13.863Z,99.99
2019-01-12T08:34:14.009Z,99.99
2019-01-12T08:35:13.944Z,99.99
2019-01-12T08:36:14.006Z,99.99
2019-01-12T08:37:14.052Z,99.99
2019-01-12T08:38:14.108Z,99.99
2019-01-12T08:39:14.143Z,99.99
2019-01-12T08:40:14.187Z,99.99
2019-01-12T08:41:14.278Z,99.99
2019-01-12T08:42:14.302Z,99.99
2019-01-12T08:43:14.358Z,99.99
2019-01-12T08:44:14.389Z,99.99
2019-01-12T08:45:14.438Z,99.99
2019-01-12T08:46:14.474Z,99.99
2019-01-12T08:47:14.512Z,99.99
2019-01-12T08:48:14.570Z,99.99
2019-01-12T08:49:14.596Z,99.99
2019-01-12T08:50:14.663Z,99.99
2019-01-12T08:51:14.729Z,99.99
2019-01-12T08:52:14.784Z,99.99
2019-01-12T08:53:14.807Z,99.99
2019-01-12T08:54:14.847Z,99.99
2019-01-12T08:55:14.917Z,99.99
2019-01-12T08:56:14.928Z,99.99
2019-01-12T08:57:14.992Z,99.99
2019-01-12T08:58:15.054Z,99.99
2019-01-12T08:59:15.095Z,99.99
2019-01-12T09:00:15.126Z,99.99
2019-01-12T09:01:15.209Z,99.99
2019-01-12T09:02:15.242Z,99.99
2019-01-12T09:03:15.353Z,99.99
2019-01-12T09:04:15.441Z,99.99
2019-01-12T09:05:15.383Z,99.99
2019-01-12T09:06:15.423Z,99.99
2019-01-12T09:07:15.490Z,99.99
2019-01-12T09:08:15.531Z,99.99
2019-01-12T09:09:15.544Z,99.99
2019-01-12T09:10:15.622Z,99.99
2019-01-12T09:11:15.643Z,99.99
2019-01-12T09:12:15.716Z,99.99
2019-01-12T09:13:15.760Z,99.99
2019-01-12T09:14:15.811Z,99.99
2019-01-12T09:15:15.857Z,99.99
2019-01-12T09:16:15.899Z,99.99
2019-01-12T09:17:15.970Z,99.99
2019-01-12T09:18:15.994Z,99.99
2019-01-12T09:19:16.033Z,99.99
2019-01-12T09:20:16.105Z,99.99
2019-01-12T09:21:16.151Z,99.99
2019-01-12T09:22:16.308Z,99.99
2019-01-12T09:23:16.228Z,99.99
2019-01-12T09:24:16.282Z,99.99
2019-01-12T09:25:16.329Z,99.99
2019-01-12T09:26:16.382Z,99.99
2019-01-12T09:27:16.411Z,99.99
2019-01-12T09:28:16.484Z,99.99
2019-01-12T09:29:16.531Z,99.99
2019-01-12T09:30:16.562Z,99.99
2019-01-12T09:31:16.660Z,99.99
2019-01-12T09:32:16.653Z,99.99
2019-01-12T09:33:16.715Z,99.99
2019-01-12T09:34:16.754Z,99.99
2019-01-12T09:35:16.811Z,99.99
2019-01-12T09:36:16.875Z,99.99
2019-01-12T09:37:16.921Z,99.99
2019-01-12T09:38:16.964Z,99.99
2019-01-12T09:39:17.003Z,99.99
2019-01-12T09:40:17.039Z,99.99
2019-01-12T09:41:17.114Z,99.99
2019-01-12T09:42:17.179Z,99.99
2019-01-12T09:43:17.173Z,99.99
2019-01-12T09:44:17.242Z,99.99
2019-01-12T09:45:17.280Z,99.99
2019-01-12T09:46:17.346Z,99.99
2019-01-12T09:47:17.375Z,99.99
2019-01-12T09:48:17.436Z,99.99
2019-01-12T09:49:17.592Z,99.99
2019-01-12T09:50:17.545Z,99.99
2019-01-12T09:51:17.584Z,99.99
2019-01-12T09:52:17.611Z,99.99
2019-01-12T09:53:17.691Z,99.99
2019-01-12T09:54:17.736Z,99.99
2019-01-12T09:55:17.769Z,99.99
2019-01-12T09:56:17.845Z,99.99
2019-01-12T09:57:17.894Z,99.99
2019-01-12T09:58:17.951Z,99.99
2019-01-12T09:59:18.022Z,99.99
2019-01-12T10:00:18.188Z,99.99
2019-01-12T10:01:18.122Z,99.99
2019-01-12T10:02:18.125Z,99.99
2019-01-12T10:03:18.168Z,99.99
2019-01-12T10:04:18.244Z,99.99
2019-01-12T10:05:18.325Z,99.99
2019-01-12T10:06:18.344Z,99.99
2019-01-12T10:07:18.373Z,99.99
2019-01-12T10:08:18.417Z,99.99
2019-01-12T10:09:18.463Z,99.99
2019-01-12T10:10:19.795Z,99.99
2019-01-12T10:11:18.575Z,99.99
2019-01-12T10:12:18.648Z,99.99
2019-01-12T10:13:18.693Z,99.99
2019-01-12T10:14:18.745Z,99.99
2019-01-12T10:15:18.799Z,99.99
2019-01-12T10:16:18.836Z,99.99
2019-01-12T10:17:18.899Z,99.99
2019-01-12T10:18:18.946Z,99.99
2019-01-12T10:19:19.003Z,99.99
2019-01-12T10:20:19.047Z,99.99
2019-01-12T10:21:19.138Z,98.09
2019-01-12T10:22:19.206Z,96.33
2019-01-12T10:23:19.216Z,96.33
2019-01-12T10:24:19.276Z,97.50
2019-01-12T10:25:19.319Z,96.23
2019-01-12T10:26:19.357Z,95.61
2019-01-12T10:27:19.458Z,97.12
2019-01-12T10:28:19.475Z,97.51
2019-01-12T10:29:19.543Z,98.24
2019-01-12T10:30:19.600Z,98.29
2019-01-12T10:31:19.654Z,96.82
2019-01-12T10:32:19.703Z,95.54
2019-01-12T10:33:19.743Z,92.02
2019-01-12T10:34:19.787Z,88.78
2019-01-12T10:35:19.839Z,86.76
2019-01-12T10:36:19.893Z,85.43
2019-01-12T10:37:19.959Z,85.33
2019-01-12T10:38:20.019Z,84.53
2019-01-12T10:39:20.073Z,83.10
2019-01-12T10:40:20.152Z,81.27
2019-01-12T10:41:20.205Z,80.29
2019-01-12T10:42:20.279Z,81.23
2019-01-12T10:43:20.284Z,82.49
2019-01-12T10:44:20.410Z,84.80
2019-01-12T10:45:20.413Z,84.00
2019-01-12T10:46:20.463Z,82.35
2019-01-12T10:47:20.524Z,79.62
2019-01-12T10:48:20.577Z,75.32
2019-01-12T10:49:20.624Z,76.10
2019-01-12T10:50:20.697Z,77.64
2019-01-12T10:51:20.776Z,79.23
2019-01-12T10:52:20.805Z,80.98
2019-01-12T10:53:20.854Z,83.58
2019-01-12T10:54:20.913Z,84.42
2019-01-12T10:55:20.970Z,86.74
2019-01-12T10:56:21.351Z,88.02
2019-01-12T10:57:21.082Z,88.37
2019-01-12T10:58:21.135Z,90.14
2019-01-12T10:59:21.193Z,91.89
2019-01-12T11:00:21.249Z,93.16
2019-01-12T11:01:21.309Z,92.77
2019-01-12T11:02:21.359Z,92.27
2019-01-12T11:03:21.398Z,91.49
2019-01-12T11:04:21.458Z,90.91
2019-01-12T11:05:21.531Z,90.32
2019-01-12T11:06:21.585Z,91.25
2019-01-12T11:07:21.651Z,92.48
2019-01-12T11:08:21.672Z,93.26
2019-01-12T11:09:21.753Z,93.70
2019-01-12T11:10:21.768Z,93.99
2019-01-12T11:11:21.871Z,94.38
2019-01-12T11:12:21.899Z,94.09
2019-01-12T11:13:21.968Z,95.26
2019-01-12T11:14:22.019Z,95.56
2019-01-12T11:15:22.115Z,94.73
2019-01-12T11:16:22.123Z,94.48
2019-01-12T11:17:22.179Z,92.42
2019-01-12T11:18:22.252Z,87.88
2019-01-12T11:19:22.305Z,88.95
2019-01-12T11:20:22.346Z,89.15
2019-01-12T11:21:22.428Z,90.03
2019-01-12T11:22:22.439Z,89.20
2019-01-12T11:23:22.509Z,91.60
2019-01-12T11:24:22.572Z,91.75
2019-01-12T11:25:22.613Z,92.97
2019-01-12T11:26:22.674Z,93.51
2019-01-12T11:27:22.722Z,95.17
2019-01-12T11:28:22.812Z,95.90
2019-01-12T11:29:22.826Z,95.81
2019-01-12T11:30:22.863Z,95.17
2019-01-12T11:31:22.922Z,95.17
2019-01-12T11:32:22.964Z,90.91
2019-01-12T11:33:23.044Z,88.07
2019-01-12T11:34:23.075Z,87.54
2019-01-12T11:35:23.170Z,87.05
2019-01-12T11:36:23.221Z,88.81
2019-01-12T11:37:23.266Z,88.81
2019-01-12T11:38:23.324Z,88.41
2019-01-12T11:39:23.379Z,87.23
2019-01-12T11:40:23.423Z,87.04
2019-01-12T11:41:23.468Z,86.80
2019-01-12T11:42:23.524Z,88.42
2019-01-12T11:43:23.584Z,90.08
2019-01-12T11:44:23.628Z,87.29
2019-01-12T11:45:23.700Z,87.24
2019-01-12T11:46:23.762Z,87.24
2019-01-12T11:47:23.788Z,89.16
2019-01-12T11:48:23.859Z,89.94
2019-01-12T11:49:23.919Z,90.53
2019-01-12T11:50:23.960Z,91.06
2019-01-12T11:51:24.008Z,90.09
2019-01-12T11:52:24.073Z,90.09
2019-01-12T11:53:24.140Z,89.65
2019-01-12T11:54:24.182Z,92.10
2019-01-12T11:55:24.238Z,91.51
2019-01-12T11:56:24.281Z,91.37
2019-01-12T11:57:24.322Z,91.90
2019-01-12T11:58:24.436Z,90.43
2019-01-12T11:59:24.435Z,87.93
2019-01-12T12:00:24.509Z,87.09
2019-01-12T12:01:24.541Z,86.25
2019-01-12T12:02:24.594Z,84.91
2019-01-12T12:03:24.663Z,82.43
2019-01-12T12:04:24.710Z,77.18
2019-01-12T12:05:24.770Z,73.59
2019-01-12T12:06:24.840Z,70.83
2019-01-12T12:07:24.887Z,69.49
2019-01-12T12:08:24.960Z,69.65
2019-01-12T12:09:25.002Z,70.37
2019-01-12T12:10:25.085Z,70.76
2019-01-12T12:11:25.115Z,72.09
2019-01-12T12:12:25.201Z,73.90
2019-01-12T12:13:25.218Z,73.38
2019-01-12T12:14:25.266Z,72.50
2019-01-12T12:15:25.334Z,71.75
2019-01-12T12:16:25.385Z,70.83
2019-01-12T12:17:25.454Z,70.27
2019-01-12T12:18:25.510Z,70.24
2019-01-12T12:19:25.625Z,70.70
2019-01-12T12:20:25.633Z,72.10
2019-01-12T12:21:25.677Z,72.86
2019-01-12T12:22:25.763Z,73.21
2019-01-12T12:23:25.810Z,73.11
2019-01-12T12:24:25.827Z,72.44
2019-01-12T12:25:25.912Z,70.73
2019-01-12T12:26:25.971Z,69.48
2019-01-12T12:27:26.218Z,68.63
2019-01-12T12:28:26.075Z,66.99
2019-01-12T12:29:26.120Z,67.54
2019-01-12T12:30:26.211Z,66.46
2019-01-12T12:31:26.275Z,65.17
2019-01-12T12:32:26.324Z,65.73
2019-01-12T12:33:26.371Z,66.46
2019-01-12T12:34:26.436Z,68.70
2019-01-12T12:35:26.481Z,68.66
2019-01-12T12:36:26.544Z,68.96
2019-01-12T12:37:26.624Z,68.79
2019-01-12T12:38:26.656Z,66.89
2019-01-12T12:39:26.719Z,68.63
2019-01-12T12:40:26.780Z,70.23
2019-01-12T12:41:26.841Z,72.07
2019-01-12T12:42:26.894Z,72.13
2019-01-12T12:43:26.951Z,74.35
2019-01-12T12:44:27.076Z,74.06
2019-01-12T12:45:27.071Z,74.35
2019-01-12T12:46:27.127Z,74.19
2019-01-12T12:47:27.190Z,73.32
2019-01-12T12:48:27.239Z,70.60
2019-01-12T12:49:27.298Z,65.47
2019-01-12T12:50:27.360Z,64.32
2019-01-12T12:51:27.421Z,63.33
2019-01-12T12:52:27.466Z,63.79
2019-01-12T12:53:27.526Z,63.48